createdAt,value
2018-11-11T00:02:25.947Z,24.30
2018-11-11T00:04:53.638Z,22.33
2018-11-11T00:07:21.404Z,22.67
2018-11-11T00:09:49.111Z,23.93
2018-11-11T00:12:16.769Z,21.67
2018-11-11T00:14:44.443Z,24.60
2018-11-11T00:17:12.124Z,20.40
2018-11-11T00:19:39.976Z,24.40
2018-11-11T00:22:07.593Z,23.20
2018-11-11T00:24:35.371Z,23.33
2018-11-11T00:27:03.068Z,28.20
2018-11-11T00:29:30.712Z,26.83
2018-11-11T00:31:58.328Z,24.23
2018-11-11T00:34:25.951Z,27.77
2018-11-11T00:36:53.652Z,27.83
2018-11-11T00:39:21.448Z,19.80
2018-11-11T00:41:49.129Z,23.43
2018-11-11T00:44:16.779Z,23.80
2018-11-11T00:46:44.441Z,23.73
2018-11-11T00:49:12.216Z,22.00
2018-11-11T00:51:39.887Z,23.47
2018-11-11T00:54:07.564Z,20.60
2018-11-11T00:56:35.333Z,21.60
2018-11-11T00:59:03.038Z,26.47
2018-11-11T01:01:30.780Z,25.83
2018-11-11T01:03:58.483Z,24.57
2018-11-11T01:06:26.128Z,26.13
2018-11-11T01:08:53.828Z,21.23
2018-11-11T01:11:21.523Z,22.13
2018-11-11T01:13:49.247Z,26.57
2018-11-11T01:16:16.956Z,28.37
2018-11-11T01:18:44.622Z,28.60
2018-11-11T01:21:12.307Z,24.43
2018-11-11T01:23:39.932Z,24.23
2018-11-11T01:26:07.692Z,29.27
2018-11-11T01:28:35.374Z,23.27
2018-11-11T01:31:03.124Z,28.13
2018-11-11T01:33:30.780Z,29.07
2018-11-11T01:35:58.438Z,24.97
2018-11-11T01:38:26.098Z,21.90
2018-11-11T01:40:53.820Z,24.67
2018-11-11T01:43:21.484Z,27.07
2018-11-11T01:45:49.145Z,26.17
2018-11-11T01:48:16.832Z,23.37
2018-11-11T01:50:44.584Z,23.50
2018-11-11T01:53:12.252Z,23.67
2018-11-11T01:55:40.964Z,20.60
2018-11-11T01:58:08.648Z,18.67
2018-11-11T02:00:36.316Z,20.10
2018-11-11T02:03:04.032Z,16.00
2018-11-11T02:05:31.700Z,18.87
2018-11-11T02:07:59.369Z,12.43
2018-11-11T02:10:27.028Z,14.10
2018-11-11T02:12:54.808Z,14.00
2018-11-11T02:15:22.420Z,12.57
2018-11-11T02:17:50.064Z,13.27
2018-11-11T02:20:18.745Z,11.10
2018-11-11T02:22:47.160Z,13.73
2018-11-11T02:25:14.824Z,13.13
2018-11-11T02:27:42.512Z,11.00
2018-11-11T02:30:13.233Z,11.67
2018-11-11T02:32:41.428Z,12.90
2018-11-11T02:35:09.364Z,11.47
2018-11-11T02:37:37.169Z,9.37
2018-11-11T02:40:06.576Z,12.20
2018-11-11T02:42:34.332Z,12.27
2018-11-11T02:45:02.056Z,11.37
2018-11-11T02:47:29.776Z,9.70
2018-11-11T02:49:57.428Z,11.10
2018-11-11T02:52:25.083Z,12.97
2018-11-11T02:54:52.756Z,13.50
2018-11-11T02:57:20.352Z,8.77
2018-11-11T02:59:47.996Z,10.70
2018-11-11T03:02:15.660Z,12.53
2018-11-11T03:04:43.312Z,12.83
2018-11-11T03:07:10.992Z,12.50
2018-11-11T03:09:38.653Z,10.87
2018-11-11T03:12:06.367Z,11.67
2018-11-11T03:14:34.021Z,9.67
2018-11-11T03:17:01.803Z,13.13
2018-11-11T03:19:29.470Z,11.13
2018-11-11T03:21:57.112Z,11.33
2018-11-11T03:24:24.816Z,11.90
2018-11-11T03:26:52.426Z,9.57
2018-11-11T03:29:21.140Z,11.43
2018-11-11T03:31:48.845Z,12.23
2018-11-11T03:34:16.489Z,14.07
2018-11-11T03:36:44.175Z,11.33
2018-11-11T03:39:11.852Z,13.90
2018-11-11T03:41:39.739Z,15.17
2018-11-11T03:44:07.420Z,13.93
2018-11-11T03:46:35.147Z,15.70
2018-11-11T03:49:02.753Z,13.90
2018-11-11T03:51:30.402Z,16.60
2018-11-11T03:53:58.261Z,17.50
2018-11-11T03:56:25.912Z,18.20
2018-11-11T03:58:53.628Z,18.63
2018-11-11T04:01:21.341Z,19.60
2018-11-11T04:03:49.102Z,20.43
2018-11-11T04:06:16.764Z,22.37
2018-11-11T04:08:44.878Z,25.17
2018-11-11T04:11:12.560Z,25.40
2018-11-11T04:13:40.217Z,28.80
2018-11-11T04:16:08.024Z,23.63
2018-11-11T04:18:35.693Z,24.53
2018-11-11T04:21:03.419Z,27.60
2018-11-11T04:23:31.089Z,27.70
2018-11-11T04:25:58.824Z,30.37
2018-11-11T04:28:26.532Z,27.77
2018-11-11T04:30:54.193Z,26.60
2018-11-11T04:33:21.920Z,21.60
2018-11-11T04:35:49.575Z,30.17
2018-11-11T04:38:17.263Z,25.10
2018-11-11T04:40:44.936Z,29.73
2018-11-11T04:43:12.584Z,30.00
2018-11-11T04:45:41.231Z,32.83
2018-11-11T04:48:08.865Z,28.47
2018-11-11T04:50:36.501Z,32.00
2018-11-11T04:53:04.212Z,35.63
2018-11-11T04:55:31.857Z,32.77
2018-11-11T04:57:59.476Z,24.30
2018-11-11T05:00:27.165Z,27.23
2018-11-11T05:02:54.840Z,30.80
2018-11-11T05:05:22.524Z,28.63
2018-11-11T05:07:50.218Z,32.00
2018-11-11T05:10:17.953Z,29.80
2018-11-11T05:12:45.702Z,34.47
2018-11-11T05:15:13.744Z,29.07
2018-11-11T05:17:41.489Z,25.63
2018-11-11T05:20:10.145Z,32.03
2018-11-11T05:22:37.808Z,29.10
2018-11-11T05:25:07.760Z,27.63
2018-11-11T05:27:35.500Z,26.60
2018-11-11T05:30:03.271Z,25.20
2018-11-11T05:32:30.988Z,33.60
2018-11-11T05:34:58.679Z,29.13
2018-11-11T05:37:27.252Z,30.57
2018-11-11T05:39:54.897Z,25.87
2018-11-11T05:42:22.575Z,29.77
2018-11-11T05:44:50.196Z,25.60
2018-11-11T05:47:17.856Z,25.90
2018-11-11T05:49:45.600Z,23.93
2018-11-11T05:52:13.248Z,28.33
2018-11-11T05:54:40.868Z,24.70
2018-11-11T05:57:08.556Z,27.43
2018-11-11T05:59:36.223Z,22.10
2018-11-11T06:02:03.932Z,26.70
2018-11-11T06:04:32.656Z,23.90
2018-11-11T06:07:00.345Z,26.00
2018-11-11T06:09:27.992Z,22.03
2018-11-11T06:11:57.456Z,20.17
2018-11-11T06:14:25.100Z,21.90
2018-11-11T06:16:52.747Z,21.67
2018-11-11T06:19:20.444Z,27.13
2018-11-11T06:21:48.162Z,21.13
2018-11-11T06:24:16.851Z,18.43
2018-11-11T06:26:44.600Z,24.83
2018-11-11T06:29:12.271Z,16.23
2018-11-11T06:31:40.423Z,14.50
2018-11-11T06:34:08.195Z,17.37
2018-11-11T06:36:35.760Z,15.50
2018-11-11T06:39:05.064Z,18.60
2018-11-11T06:41:32.708Z,19.87
2018-11-11T06:44:00.413Z,26.50
2018-11-11T06:46:28.160Z,19.33
2018-11-11T06:48:55.956Z,17.50
2018-11-11T06:51:23.647Z,18.97
2018-11-11T06:53:51.465Z,21.17
2018-11-11T06:56:19.200Z,21.40
2018-11-11T06:58:46.879Z,16.07
2018-11-11T07:01:14.540Z,18.20
2018-11-11T07:03:57.460Z,17.50
2018-11-11T07:06:25.548Z,17.07
2018-11-11T07:08:53.233Z,19.90
2018-11-11T07:11:20.868Z,22.40
2018-11-11T07:13:48.642Z,15.43
2018-11-11T07:16:16.272Z,17.50
2018-11-11T07:18:44.827Z,17.17
2018-11-11T07:21:12.464Z,16.00
2018-11-11T07:23:40.110Z,12.17
2018-11-11T07:26:07.757Z,13.87
2018-11-11T07:28:35.440Z,14.40
2018-11-11T07:31:03.156Z,19.47
2018-11-11T07:33:30.800Z,15.03
2018-11-11T07:35:58.848Z,14.27
2018-11-11T07:38:26.512Z,17.17
2018-11-11T07:40:54.157Z,22.27
2018-11-11T07:43:21.824Z,13.13
2018-11-11T07:45:49.820Z,18.23
2018-11-11T07:48:17.619Z,19.30
2018-11-11T07:50:45.319Z,18.47
2018-11-11T07:53:13.057Z,19.37
2018-11-11T07:55:40.736Z,22.63
2018-11-11T07:58:08.436Z,18.50
2018-11-11T08:00:36.159Z,15.70
2018-11-11T08:03:03.880Z,21.57
2018-11-11T08:05:31.580Z,18.80
2018-11-11T08:07:59.313Z,20.07
2018-11-11T08:10:38.113Z,14.37
2018-11-11T08:13:05.779Z,21.40
2018-11-11T08:15:33.496Z,13.30
2018-11-11T08:18:01.180Z,10.93
2018-11-11T08:20:28.984Z,9.20
2018-11-11T08:22:56.560Z,7.30
2018-11-11T08:25:24.361Z,14.60
2018-11-11T08:27:52.019Z,8.30
2018-11-11T08:30:19.644Z,8.27
2018-11-11T08:32:47.285Z,8.07
2018-11-11T08:35:14.996Z,8.00
2018-11-11T08:37:42.769Z,10.53
2018-11-11T08:40:10.499Z,6.10
2018-11-11T08:42:38.216Z,7.87
2018-11-11T08:45:07.808Z,5.60
2018-11-11T08:47:36.292Z,6.47
2018-11-11T08:50:04.197Z,5.50
2018-11-11T08:52:31.843Z,6.83
2018-11-11T08:54:59.567Z,5.30
2018-11-11T08:57:27.312Z,7.20
2018-11-11T08:59:54.988Z,5.57
2018-11-11T09:02:22.604Z,4.90
2018-11-11T09:04:50.371Z,4.97
2018-11-11T09:07:17.944Z,6.87
2018-11-11T09:09:45.548Z,6.30
2018-11-11T09:12:13.168Z,5.10
2018-11-11T09:14:40.798Z,6.67
2018-11-11T09:17:08.508Z,4.60
2018-11-11T09:19:36.202Z,5.47
2018-11-11T09:22:04.033Z,5.37
2018-11-11T09:24:31.724Z,5.33
2018-11-11T09:26:59.456Z,6.50
2018-11-11T09:29:27.340Z,5.83
2018-11-11T09:31:55.003Z,6.40
2018-11-11T09:34:22.661Z,5.43
2018-11-11T09:36:50.429Z,4.90
2018-11-11T09:39:18.108Z,5.00
2018-11-11T09:41:45.743Z,8.03
2018-11-11T09:44:13.384Z,7.17
2018-11-11T09:46:40.996Z,6.23
2018-11-11T09:49:08.681Z,5.30
2018-11-11T09:51:36.400Z,6.10
2018-11-11T09:54:04.407Z,6.33
2018-11-11T09:56:33.061Z,8.03
2018-11-11T09:59:00.825Z,6.47
2018-11-11T10:01:28.799Z,5.83
2018-11-11T10:04:06.305Z,5.37
2018-11-11T10:06:45.137Z,9.83
2018-11-11T10:09:35.460Z,6.40
2018-11-11T10:12:06.185Z,4.70
2018-11-11T10:14:42.432Z,8.17
2018-11-11T10:19:18.626Z,11.17
2018-11-11T10:21:59.952Z,5.43
2018-11-11T10:24:33.872Z,9.63
2018-11-11T10:27:12.418Z,8.20
2018-11-11T10:29:45.662Z,5.00
2018-11-11T10:32:43.848Z,6.90
2018-11-11T10:35:20.941Z,6.40
2018-11-11T10:37:53.056Z,5.10
2018-11-11T10:40:26.168Z,6.27
2018-11-11T10:43:57.289Z,6.10
2018-11-11T10:46:30.878Z,7.23
2018-11-11T10:49:01.293Z,7.93
2018-11-11T10:51:28.974Z,9.37
2018-11-11T10:53:56.653Z,5.40
2018-11-11T10:56:24.305Z,8.90
2018-11-11T10:58:51.962Z,7.67
2018-11-11T11:01:25.135Z,9.57
2018-11-11T11:03:52.797Z,7.00
2018-11-11T11:06:26.122Z,6.20
2018-11-11T11:08:59.471Z,7.13
2018-11-11T11:11:27.115Z,6.70
2018-11-11T11:13:55.887Z,6.97
2018-11-11T11:16:23.420Z,7.70
2018-11-11T11:18:51.405Z,5.60
2018-11-11T11:21:19.195Z,5.50
2018-11-11T11:23:47.080Z,5.73
2018-11-11T11:26:15.042Z,7.13
2018-11-11T11:28:42.812Z,6.70
2018-11-11T11:31:10.573Z,5.93
2018-11-11T11:33:38.184Z,6.30
2018-11-11T11:36:05.912Z,8.17
2018-11-11T11:38:33.512Z,6.37
2018-11-11T11:41:01.152Z,5.57
2018-11-11T11:43:28.807Z,5.50
2018-11-11T11:45:56.460Z,5.80
2018-11-11T11:48:24.232Z,6.17
2018-11-11T11:50:51.884Z,5.00
2018-11-11T11:53:19.752Z,5.30
2018-11-11T11:55:47.392Z,6.83
2018-11-11T11:58:19.772Z,5.27
2018-11-11T12:00:47.431Z,5.20
2018-11-11T12:03:15.324Z,5.97
2018-11-11T12:05:42.983Z,5.93
2018-11-11T12:08:10.735Z,6.27
2018-11-11T12:10:38.424Z,5.73
2018-11-11T12:13:06.804Z,9.67
2018-11-11T12:15:34.473Z,8.00
2018-11-11T12:18:02.273Z,6.40
2018-11-11T12:20:29.925Z,5.87
2018-11-11T12:22:58.328Z,5.53
2018-11-11T12:25:25.960Z,6.93
2018-11-11T12:27:53.894Z,6.70
2018-11-11T12:30:23.202Z,6.30
2018-11-11T12:32:50.853Z,6.93
2018-11-11T12:35:18.476Z,7.00
2018-11-11T12:37:46.134Z,10.73
2018-11-11T12:40:13.924Z,7.97
2018-11-11T12:42:42.472Z,7.13
2018-11-11T12:45:10.732Z,7.30
2018-11-11T12:47:38.383Z,4.80
2018-11-11T12:50:06.880Z,5.83
2018-11-11T12:52:34.549Z,6.70
2018-11-11T12:55:02.271Z,5.90
2018-11-11T12:57:29.972Z,6.60
2018-11-11T12:59:57.656Z,9.97
2018-11-11T13:02:25.372Z,6.17
2018-11-11T13:04:53.420Z,10.00
2018-11-11T13:07:21.131Z,6.47
2018-11-11T13:09:48.940Z,7.27
2018-11-11T13:12:16.708Z,4.80
2018-11-11T13:14:44.264Z,10.30
2018-11-11T13:17:11.940Z,6.00
2018-11-11T13:19:39.596Z,9.00
2018-11-11T13:22:07.350Z,5.63
2018-11-11T13:24:35.178Z,10.07
2018-11-11T13:27:02.875Z,5.53
2018-11-11T13:29:30.624Z,9.40
2018-11-11T13:31:58.361Z,5.10
2018-11-11T13:34:25.897Z,5.40
2018-11-11T13:36:53.490Z,7.27
2018-11-11T13:39:21.164Z,6.60
2018-11-11T13:41:48.896Z,5.03
2018-11-11T13:44:16.464Z,6.30
2018-11-11T13:46:45.173Z,5.47
2018-11-11T13:49:12.826Z,4.77
2018-11-11T13:51:41.537Z,4.83
2018-11-11T13:54:09.101Z,7.23
2018-11-11T13:56:36.984Z,6.87
2018-11-11T13:59:04.879Z,8.40
2018-11-11T14:01:32.493Z,6.50
2018-11-11T14:04:00.140Z,5.17
2018-11-11T14:06:27.905Z,9.73
2018-11-11T14:08:55.588Z,10.87
2018-11-11T14:11:23.219Z,5.80
2018-11-11T14:13:50.877Z,5.80
2018-11-11T14:16:18.579Z,5.53
2018-11-11T14:18:46.526Z,5.40
2018-11-11T14:21:13.958Z,6.20
2018-11-11T14:23:41.719Z,6.20
2018-11-11T14:26:09.364Z,5.27
2018-11-11T14:28:37.053Z,5.27
2018-11-11T14:31:04.888Z,8.57
2018-11-11T14:33:32.536Z,6.70
2018-11-11T14:36:00.268Z,7.77
2018-11-11T14:38:27.831Z,7.17
2018-11-11T14:40:55.387Z,6.03
2018-11-11T14:43:23.133Z,7.50
2018-11-11T14:45:50.828Z,5.70
2018-11-11T14:48:18.438Z,6.90
2018-11-11T14:50:46.300Z,6.23
2018-11-11T14:53:14.000Z,6.23
2018-11-11T14:55:41.640Z,5.47
2018-11-11T14:58:09.341Z,5.90
2018-11-11T15:00:36.987Z,8.73
2018-11-11T15:03:07.645Z,7.40
2018-11-11T15:05:35.287Z,6.07
2018-11-11T15:08:03.172Z,9.20
2018-11-11T15:10:30.883Z,10.03
2018-11-11T15:12:58.655Z,5.57
2018-11-11T15:15:26.358Z,5.77
2018-11-11T15:17:54.875Z,6.07
2018-11-11T15:20:22.749Z,7.47
2018-11-11T15:22:50.328Z,8.00
2018-11-11T15:25:19.361Z,7.20
2018-11-11T15:27:47.257Z,6.47
2018-11-11T15:30:22.870Z,6.60
2018-11-11T15:32:50.881Z,5.57
2018-11-11T15:35:18.555Z,5.20
2018-11-11T15:37:46.295Z,5.07
2018-11-11T15:40:15.353Z,6.40
2018-11-11T15:42:42.976Z,5.00
2018-11-11T15:45:13.083Z,8.23
2018-11-11T15:47:40.720Z,5.57
2018-11-11T15:50:12.757Z,5.30
2018-11-11T15:52:41.316Z,5.03
2018-11-11T15:55:10.089Z,5.53
2018-11-11T15:57:37.709Z,5.20
2018-11-11T16:00:07.852Z,9.70
2018-11-11T16:02:35.640Z,5.90
2018-11-11T16:05:03.408Z,7.83
2018-11-11T16:07:31.040Z,6.10
2018-11-11T16:09:58.624Z,7.10
2018-11-11T16:12:26.259Z,5.90
2018-11-11T16:14:53.938Z,5.30
2018-11-11T16:17:21.596Z,5.90
2018-11-11T16:19:49.556Z,6.53
2018-11-11T16:22:17.336Z,8.27
2018-11-11T16:24:45.134Z,6.13
2018-11-11T16:27:12.784Z,5.83
2018-11-11T16:29:40.474Z,9.10
2018-11-11T16:32:08.122Z,4.80
2018-11-11T16:34:35.812Z,5.50
2018-11-11T16:37:03.530Z,9.00
2018-11-11T16:39:31.207Z,6.40
2018-11-11T16:41:58.907Z,7.13
2018-11-11T16:44:26.457Z,8.73
2018-11-11T16:46:54.067Z,9.03
2018-11-11T16:49:21.736Z,9.53
2018-11-11T16:51:49.528Z,9.33
2018-11-11T16:54:17.216Z,5.80
2018-11-11T16:56:44.851Z,6.63
2018-11-11T16:59:12.464Z,5.93
2018-11-11T17:01:40.132Z,6.80
2018-11-11T17:04:07.830Z,7.00
2018-11-11T17:06:35.428Z,7.30
2018-11-11T17:09:03.388Z,6.40
2018-11-11T17:11:31.136Z,6.87
2018-11-11T17:13:58.825Z,9.10
2018-11-11T17:16:26.473Z,6.57
2018-11-11T17:18:54.095Z,6.30
2018-11-11T17:21:21.765Z,5.73
2018-11-11T17:23:49.439Z,7.50
2018-11-11T17:26:17.165Z,8.03
2018-11-11T17:28:44.800Z,16.53
2018-11-11T17:31:12.512Z,7.30
2018-11-11T17:33:40.093Z,11.27
2018-11-11T17:36:07.792Z,9.17
2018-11-11T17:38:35.394Z,10.20
2018-11-11T17:41:05.076Z,6.70
2018-11-11T17:43:32.720Z,8.03
2018-11-11T17:46:00.453Z,8.80
2018-11-11T17:48:28.201Z,7.37
2018-11-11T17:50:55.884Z,6.63
2018-11-11T17:53:23.552Z,10.23
2018-11-11T17:55:51.197Z,8.83
2018-11-11T17:58:18.933Z,8.53
2018-11-11T18:00:47.617Z,6.90
2018-11-11T18:03:15.425Z,7.57
2018-11-11T18:05:43.037Z,8.40
2018-11-11T18:08:10.719Z,6.93
2018-11-11T18:10:38.453Z,5.40
2018-11-11T18:13:07.080Z,8.30
2018-11-11T18:15:34.691Z,7.37
2018-11-11T18:18:02.388Z,6.77
2018-11-11T18:20:31.494Z,7.50
2018-11-11T18:22:59.880Z,8.23
2018-11-11T18:25:27.554Z,7.13
2018-11-11T18:27:55.282Z,7.57
2018-11-11T18:30:26.184Z,8.57
2018-11-11T18:32:54.392Z,9.27
2018-11-11T18:35:22.172Z,5.57
2018-11-11T18:37:50.784Z,6.23
2018-11-11T18:40:19.736Z,5.90
2018-11-11T18:42:47.508Z,6.70
2018-11-11T18:45:17.390Z,6.10
2018-11-11T18:47:45.683Z,7.57
2018-11-11T18:50:15.825Z,8.40
2018-11-11T18:52:43.531Z,8.63
2018-11-11T18:55:11.533Z,7.80
2018-11-11T18:57:39.662Z,10.03
2018-11-11T19:00:11.700Z,13.30
2018-11-11T19:02:39.282Z,11.20
2018-11-11T19:05:08.432Z,12.80
2018-11-11T19:07:36.189Z,10.57
2018-11-11T19:10:04.525Z,16.00
2018-11-11T19:12:32.389Z,9.47
2018-11-11T19:15:00.524Z,7.60
2018-11-11T19:17:28.353Z,10.60
2018-11-11T19:19:57.125Z,5.70
2018-11-11T19:22:24.792Z,7.03
2018-11-11T19:24:52.745Z,6.37
2018-11-11T19:27:20.505Z,6.67
2018-11-11T19:29:48.467Z,8.50
2018-11-11T19:32:16.341Z,9.77
2018-11-11T19:34:44.444Z,5.77
2018-11-11T19:37:12.157Z,10.40
2018-11-11T19:39:40.168Z,6.13
2018-11-11T19:42:08.753Z,6.70
2018-11-11T19:44:38.111Z,6.83
2018-11-11T19:47:06.492Z,7.60
2018-11-11T19:49:34.369Z,7.17
2018-11-11T19:52:02.244Z,8.53
2018-11-11T19:54:30.881Z,6.20
2018-11-11T19:56:59.475Z,7.37
2018-11-11T19:59:27.655Z,7.23
2018-11-11T20:01:56.098Z,9.50
2018-11-11T20:04:24.538Z,7.30
2018-11-11T20:06:52.995Z,9.23
2018-11-11T20:09:20.990Z,5.90
2018-11-11T20:11:49.115Z,10.00
2018-11-11T20:14:17.635Z,8.20
2018-11-11T20:16:45.523Z,9.50
2018-11-11T20:19:13.296Z,9.63
2018-11-11T20:21:40.997Z,6.23
2018-11-11T20:24:09.043Z,7.63
2018-11-11T20:26:36.962Z,8.30
2018-11-11T20:29:05.180Z,10.27
2018-11-11T20:31:33.707Z,11.23
2018-11-11T20:34:01.627Z,7.30
2018-11-11T20:36:29.501Z,6.60
2018-11-11T20:38:58.285Z,6.83
2018-11-11T20:41:26.831Z,9.57
2018-11-11T20:43:54.612Z,6.57
2018-11-11T20:46:22.404Z,16.70
2018-11-11T20:48:50.515Z,8.93
2018-11-11T20:51:18.400Z,6.77
2018-11-11T20:53:46.346Z,8.00
2018-11-11T20:56:14.395Z,7.57
2018-11-11T20:58:42.191Z,7.83
2018-11-11T21:01:10.300Z,8.57
2018-11-11T21:03:38.269Z,8.33
2018-11-11T21:06:06.165Z,9.40
2018-11-11T21:08:33.983Z,8.73
2018-11-11T21:11:01.688Z,6.20
2018-11-11T21:13:29.384Z,8.20
2018-11-11T21:15:57.076Z,6.80
2018-11-11T21:18:24.772Z,7.07
2018-11-11T21:20:52.521Z,5.30
2018-11-11T21:23:20.220Z,7.20
2018-11-11T21:25:48.960Z,8.00
2018-11-11T21:28:16.640Z,5.60
2018-11-11T21:30:44.396Z,6.90
2018-11-11T21:33:12.092Z,6.33
2018-11-11T21:35:39.773Z,7.27
2018-11-11T21:38:07.564Z,6.23
2018-11-11T21:40:35.320Z,5.60
2018-11-11T21:43:03.034Z,5.93
2018-11-11T21:45:30.701Z,5.70
2018-11-11T21:47:58.340Z,5.80
2018-11-11T21:50:26.764Z,6.30
2018-11-11T21:53:04.778Z,7.90
2018-11-11T21:55:32.403Z,6.97
2018-11-11T21:58:01.040Z,6.80
2018-11-11T22:00:28.762Z,7.40
2018-11-11T22:02:56.521Z,6.13
2018-11-11T22:05:24.081Z,6.40
2018-11-11T22:07:51.748Z,9.10
2018-11-11T22:10:19.659Z,6.60
2018-11-11T22:12:47.285Z,6.60
2018-11-11T22:15:15.040Z,7.83
2018-11-11T22:17:42.640Z,6.70
2018-11-11T22:20:11.496Z,6.53
2018-11-11T22:22:39.496Z,7.30
2018-11-11T22:25:07.147Z,7.53
2018-11-11T22:27:35.165Z,8.23
2018-11-11T22:30:02.914Z,7.80
2018-11-11T22:32:30.552Z,13.33
2018-11-11T22:34:58.313Z,9.63
2018-11-11T22:37:25.906Z,6.40
2018-11-11T22:39:53.487Z,8.53
2018-11-11T22:42:21.136Z,6.37
2018-11-11T22:44:48.748Z,6.00
2018-11-11T22:47:16.388Z,7.10
2018-11-11T22:49:44.080Z,6.23
2018-11-11T22:52:11.900Z,7.07
2018-11-11T22:54:39.592Z,7.77
2018-11-11T22:57:07.296Z,6.43
2018-11-11T22:59:34.972Z,8.40
2018-11-11T23:02:02.681Z,5.90
2018-11-11T23:04:30.384Z,7.17
2018-11-11T23:06:58.060Z,8.20
2018-11-11T23:09:25.647Z,6.70
2018-11-11T23:11:53.352Z,7.57
2018-11-11T23:14:20.968Z,6.47
2018-11-11T23:16:48.608Z,7.50
2018-11-11T23:19:16.313Z,6.77
2018-11-11T23:21:43.997Z,7.07
2018-11-11T23:24:11.620Z,13.23
2018-11-11T23:26:39.266Z,9.17
2018-11-11T23:29:06.940Z,9.67
2018-11-11T23:31:34.657Z,9.30
2018-11-11T23:34:02.293Z,9.00
2018-11-11T23:36:29.904Z,7.67
2018-11-11T23:38:57.492Z,11.33
2018-11-11T23:41:25.197Z,9.97
2018-11-11T23:43:52.859Z,8.97
2018-11-11T23:46:21.589Z,7.40
2018-11-11T23:48:50.267Z,7.50
2018-11-11T23:51:17.903Z,8.17
2018-11-11T23:53:45.560Z,7.80
2018-11-11T23:56:13.240Z,11.90
2018-11-11T23:58:40.922Z,8.90
